Airfield :
LOGIN :

Register | Disclaimer

   EN    FR    IT 

 










Legend :    VFR   Marginal VFR   IFR   Intensive IFR   Very Intensive IFR
Visi :
Ceiling :
>= 8 km
>= 3000ft
5 to 8 km
1000 to 3000 ft
1500m to 5 km
500 to 1000 ft
800 to 1500m
200 to 500 ft
< 800m
< 200 ft
Symbols :   Thunderstorms  Fog  Heavy snow  Heavy precipitations  Wind > 20 kt
SIGMETs :     Misc.  Thunderstorms  Icing  Turbulence  Mountain Waves  Volcanic Ashes







- Airport Elevation : 511 ft
- IATA code : LHA


EDTL - Lahr Schwarzwald

CURRENT METAR :
  • 141820Z 19014KT 9999 -RA BKN023 05/04 Q0997

EXPIRED METARs :
  • 141750Z 19017KT 9999 -RA BKN023 05/04 Q0998
  • 141720Z 20011KT 9999 -RA FEW015 BKN021 06/03 Q0998
  • 141650Z 19015KT 9999 -RA FEW012 BKN024 06/03 Q0998
  • 141620Z 19017KT 9999 FEW023 SCT043 BKN078 06/02 Q0999
  • 141550Z 19016KT 9999 FEW023 BKN048 07/02 Q0999

TAF TAF EDTL
Valid from the 14 at 18:00 until the 15 at 00:00 UTC


141700Z 1418/1424 19015KT 9999 SCT012 BKN020
TEMPO 1418/1424 19015G25KT 4000 SHRA BKN012CB
No reported NOTAMs for that airfield.
1 SIGMET reported for the Langen FIR (EDGG) :
 
Severe turbulence
EDGG SIGMET 3 VALID 141744/141930 EDZF
EDGG LANGEN FIR SEV TURB OBS S OF N4840 FL180/240 STNR NC=



MET'MAP, your aeronautical weather chart ! - Copyright ORBIFLY December 2007 - Disclaimer

ORBIFLY MET'MAP TEAM :

Programming & Development : Alexandra Zaïnal
Concept & Development : Baudouin d'Aumeries
Co-Development & Prog : Marc-Olivier Méhu
Technical & hardware support : Manuel Goepfert

Contact : metmap@orbifly.com




SOURCES & CREDITS :

   NOAA